Time;durP1;ratioP1;P1;durP2;ratioP2;P2;SDS_P1;SDS_P2;PMS_P1;PMS_P2;Temp;Humidity;BMP_temperature;BMP_pressure;BME280_temperature;BME280_humidity;BME280_pressure;Samples;Min_cycle;Max_cycle;Signal;HPM_P1;HPM_P2
2022/04/11 00:01:32;;;;;;;5.38;1.50;;;;;;;3.13;100.00;101703.88;5070374;28;20178;-44
2022/04/11 00:03:57;;;;;;;2.80;1.70;;;;;;;2.94;100.00;101696.69;5072138;28;20261;-41
2022/04/11 00:06:23;;;;;;;4.60;1.75;;;;;;;2.97;100.00;101704.63;5071663;28;20622;-43
2022/04/11 00:08:48;;;;;;;4.20;1.58;;;;;;;2.98;100.00;101699.34;5070655;28;20189;-43
2022/04/11 00:11:14;;;;;;;3.22;1.67;;;;;;;2.99;100.00;101695.81;5070582;28;20582;-42
2022/04/11 00:13:39;;;;;;;2.97;1.60;;;;;;;3.07;100.00;101709.13;5071986;28;20183;-44
2022/04/11 00:16:07;;;;;;;4.30;1.60;;;;;;;3.09;100.00;101691.50;5071613;28;20167;-41
2022/04/11 00:18:36;;;;;;;3.45;1.70;;;;;;;3.04;100.00;101694.09;5071723;28;20262;-41
2022/04/11 00:21:02;;;;;;;3.75;1.50;;;;;;;3.06;100.00;101694.09;5071680;28;20251;-47
2022/04/11 00:23:27;;;;;;;2.78;1.42;;;;;;;3.01;100.00;101701.13;5071245;28;20254;-47
2022/04/11 00:25:53;;;;;;;4.55;1.80;;;;;;;2.98;100.00;101704.66;5071269;28;20201;-47
2022/04/11 00:28:18;;;;;;;2.58;1.52;;;;;;;2.95;100.00;101693.13;5071150;28;20209;-45
2022/04/11 00:30:44;;;;;;;8.65;1.80;;;;;;;2.92;100.00;101704.59;5070182;28;20284;-45
2022/04/11 00:33:09;;;;;;;3.58;1.90;;;;;;;3.07;100.00;101703.81;5071084;28;20214;-46
2022/04/11 00:35:34;;;;;;;6.40;1.85;;;;;;;2.93;100.00;101700.19;5069688;28;20187;-47
2022/04/11 00:38:00;;;;;;;3.88;1.80;;;;;;;2.86;100.00;101708.09;5069826;28;20711;-47
2022/04/11 00:40:25;;;;;;;4.65;1.95;;;;;;;2.81;100.00;101698.34;5071219;28;20186;-48
2022/04/11 00:42:51;;;;;;;4.72;2.10;;;;;;;2.86;100.00;101702.81;5070535;28;20791;-47
2022/04/11 00:45:17;;;;;;;4.15;2.33;;;;;;;2.71;100.00;101694.72;5071436;28;20595;-46
2022/04/11 00:47:45;;;;;;;2.65;2.08;;;;;;;2.82;100.00;101697.44;5071156;28;20577;-46
2022/04/11 00:50:13;;;;;;;5.18;2.03;;;;;;;2.86;100.00;101693.97;5070731;28;20556;-49
2022/04/11 00:52:48;;;;;;;4.68;2.00;;;;;;;2.80;100.00;101693.91;5069617;28;20181;-47
2022/04/11 00:55:15;;;;;;;6.05;2.40;;;;;;;2.73;100.00;101702.69;5069032;28;20660;-46
2022/04/11 00:57:42;;;;;;;3.10;1.80;;;;;;;2.68;100.00;101700.88;5069545;28;20286;-46
2022/04/11 01:00:09;;;;;;;5.97;2.22;;;;;;;2.73;100.00;101697.38;5070725;28;20182;-46
2022/04/11 01:02:36;;;;;;;6.13;2.25;;;;;;;2.70;100.00;101698.25;5070137;28;20189;-46
2022/04/11 01:05:01;;;;;;;4.28;2.15;;;;;;;2.74;100.00;101712.41;5070866;28;20182;-46
2022/04/11 01:07:27;;;;;;;5.88;2.60;;;;;;;2.53;100.00;101711.34;5069150;28;20214;-46
2022/04/11 01:09:54;;;;;;;4.80;2.60;;;;;;;2.53;100.00;101699.88;5070447;28;20270;-47
2022/04/11 01:12:22;;;;;;;4.43;2.60;;;;;;;2.51;100.00;101705.13;5069188;28;20207;-46
2022/04/11 01:14:49;;;;;;;4.25;2.67;;;;;;;2.58;100.00;101701.69;5052191;28;20170;-46
2022/04/11 01:17:14;;;;;;;5.07;2.53;;;;;;;2.44;100.00;101708.59;5069030;28;20693;-48
2022/04/11 01:19:40;;;;;;;5.82;2.42;;;;;;;2.52;100.00;101698.13;5070463;28;20408;-48
2022/04/11 01:22:05;;;;;;;4.53;1.90;;;;;;;2.33;100.00;101712.91;5068375;28;20248;-47
2022/04/11 01:24:32;;;;;;;4.00;1.80;;;;;;;2.50;100.00;101699.84;5068828;28;20217;-47
2022/04/11 01:26:58;;;;;;;3.60;1.55;;;;;;;2.41;100.00;101703.31;5068391;28;20209;-48
2022/04/11 01:29:25;;;;;;;3.42;1.83;;;;;;;2.46;100.00;101704.22;5069069;28;20260;-47
2022/04/11 01:31:50;;;;;;;3.72;1.67;;;;;;;2.39;100.00;101703.28;5068533;28;20231;-48
2022/04/11 01:34:16;;;;;;;3.42;1.50;;;;;;;2.39;100.00;101710.34;5070045;28;20329;-48
2022/04/11 01:36:41;;;;;;;6.00;1.48;;;;;;;2.42;100.00;101705.06;5059217;28;20211;-48
2022/04/11 01:39:09;;;;;;;13.30;2.60;;;;;;;2.41;100.00;101714.75;5040991;28;20194;-45
2022/04/11 01:41:36;;;;;;;3.72;1.52;;;;;;;2.52;100.00;101716.63;5049014;28;20175;-48
2022/04/11 01:44:02;;;;;;;4.30;1.50;;;;;;;2.42;100.00;101710.34;5049876;28;20182;-47
2022/04/11 01:46:27;;;;;;;2.40;1.50;;;;;;;2.40;100.00;101720.03;5046225;28;20519;-47
2022/04/11 01:48:57;;;;;;;2.00;1.30;;;;;;;2.44;100.00;101717.41;5048430;28;20194;-47
2022/04/11 01:51:23;;;;;;;3.72;1.42;;;;;;;2.47;100.00;101717.47;5048643;28;20198;-48
2022/04/11 01:53:48;;;;;;;3.15;1.15;;;;;;;2.51;100.00;101714.84;5049635;28;20205;-48
2022/04/11 01:56:14;;;;;;;2.25;1.20;;;;;;;2.55;100.00;101725.47;5031200;28;20942;-48
2022/04/11 01:58:40;;;;;;;4.78;1.52;;;;;;;2.45;100.00;101727.16;5048343;28;20179;-48
2022/04/11 02:01:06;;;;;;;4.97;1.60;;;;;;;2.29;100.00;101721.69;5047756;28;20237;-46
2022/04/11 02:03:33;;;;;;;4.22;1.60;;;;;;;2.29;100.00;101737.53;5048872;28;20182;-49
2022/04/11 02:05:58;;;;;;;2.28;1.60;;;;;;;2.25;100.00;101726.94;5049274;28;20507;-47
2022/04/11 02:08:25;;;;;;;3.03;1.88;;;;;;;2.21;100.00;101732.19;5047787;28;20282;-45
2022/04/11 02:10:54;;;;;;;4.18;1.52;;;;;;;2.24;100.00;101729.56;5048184;28;20241;-47
2022/04/11 02:13:20;;;;;;;5.68;1.77;;;;;;;2.26;100.00;101733.13;5047143;28;20171;-47
2022/04/11 02:15:45;;;;;;;8.80;1.85;;;;;;;2.19;100.00;101733.94;5050044;28;20191;-48
2022/04/11 02:18:11;;;;;;;4.53;2.00;;;;;;;2.22;100.00;101732.19;5049583;28;20207;-48
2022/04/11 02:20:36;;;;;;;4.05;2.00;;;;;;;2.21;100.00;101734.84;5047691;28;20237;-47
2022/04/11 02:23:01;;;;;;;8.82;1.80;;;;;;;2.16;100.00;101729.47;5047081;28;20179;-48
2022/04/11 02:25:30;;;;;;;4.03;1.98;;;;;;;2.09;100.00;101737.34;5047834;28;20163;-49
2022/04/11 02:27:58;;;;;;;2.97;2.28;;;;;;;2.14;100.00;101733.84;5048117;28;20688;-48
2022/04/11 02:30:24;;;;;;;4.13;2.13;;;;;;;2.08;100.00;101732.91;5031083;28;20562;-48
2022/04/11 02:32:51;;;;;;;3.72;2.10;;;;;;;2.05;100.00;101739.03;5047252;28;20220;-48
2022/04/11 02:35:16;;;;;;;2.78;2.10;;;;;;;2.07;100.00;101734.66;5049390;28;20515;-48
2022/04/11 02:37:44;;;;;;;7.72;2.30;;;;;;;2.05;100.00;101742.56;5049566;28;20194;-47
2022/04/11 02:40:12;;;;;;;6.25;1.83;;;;;;;2.09;100.00;101739.97;5047581;28;20175;-48
2022/04/11 02:42:44;;;;;;;5.05;2.10;;;;;;;2.13;100.00;101740.03;5047531;28;20619;-50
2022/04/11 02:45:13;;;;;;;5.88;2.53;;;;;;;2.13;100.00;101736.50;5047497;28;20241;-48
2022/04/11 02:47:40;;;;;;;9.30;2.90;;;;;;;2.11;100.00;101736.47;5047809;28;20554;-47
2022/04/11 02:50:07;;;;;;;5.03;2.53;;;;;;;2.18;100.00;101740.06;5030878;28;20179;-48
2022/04/11 02:52:54;;;;;;;3.78;2.25;;;;;;;2.21;100.00;101743.66;5047565;28;20179;-48
2022/04/11 02:55:21;;;;;;;4.47;2.60;;;;;;;2.18;100.00;101737.44;5047660;28;20645;-47
2022/04/11 02:57:46;;;;;;;7.85;2.95;;;;;;;2.16;100.00;101733.88;5047542;28;20616;-47
2022/04/11 03:00:13;;;;;;;8.77;2.97;;;;;;;2.18;100.00;101737.44;5048648;28;20258;-49
2022/04/11 03:02:46;;;;;;;3.88;2.45;;;;;;;2.19;100.00;101726.88;5047228;28;20601;-47
2022/04/11 03:05:12;;;;;;;3.55;2.58;;;;;;;2.10;100.00;101729.44;5047593;28;20194;-48
2022/04/11 03:07:40;;;;;;;4.35;2.70;;;;;;;2.26;100.00;101738.41;5047385;28;20227;-50
2022/04/11 03:10:07;;;;;;;3.83;2.95;;;;;;;2.21;100.00;101732.19;5047371;28;20198;-49
2022/04/11 03:12:34;;;;;;;5.40;3.15;;;;;;;2.09;100.00;101734.69;5048851;28;20237;-48
2022/04/11 03:15:01;;;;;;;6.07;3.25;;;;;;;2.11;100.00;101733.84;5048479;28;20669;-47
2022/04/11 03:17:26;;;;;;;6.32;2.70;;;;;;;2.12;100.00;101717.13;5051128;28;20245;-48
2022/04/11 03:19:52;;;;;;;6.63;3.00;;;;;;;2.10;100.00;101728.53;5051439;28;20225;-48
2022/04/11 03:22:18;;;;;;;6.60;2.80;;;;;;;1.94;100.00;101725.72;5052669;28;20564;-49
2022/04/11 03:24:50;;;;;;;7.20;2.67;;;;;;;2.01;100.00;101727.56;5050987;28;20187;-50
2022/04/11 03:27:16;;;;;;;6.30;2.85;;;;;;;2.00;100.00;101732.84;5050156;28;20209;-48
2022/04/11 03:29:41;;;;;;;6.00;3.05;;;;;;;1.99;100.00;101737.25;5051238;28;20171;-48
2022/04/11 03:32:08;;;;;;;5.05;2.60;;;;;;;2.02;100.00;101725.81;5050890;28;20266;-47
2022/04/11 03:34:36;;;;;;;3.75;2.42;;;;;;;2.02;100.00;101737.25;5051212;28;20188;-49
2022/04/11 03:37:03;;;;;;;6.90;3.10;;;;;;;1.99;100.00;101731.03;5047251;28;20187;-49
2022/04/11 03:39:34;;;;;;;8.95;2.83;;;;;;;2.02;100.00;101729.34;5050640;28;20712;-48
2022/04/11 03:42:00;;;;;;;5.75;2.55;;;;;;;2.06;100.00;101724.97;5048664;28;20171;-48
2022/04/11 03:44:29;;;;;;;4.40;2.63;;;;;;;1.97;100.00;101738.97;5055839;28;20610;-48
2022/04/11 03:47:00;;;;;;;4.15;2.60;;;;;;;1.94;100.00;101733.63;5052406;28;20249;-49
2022/04/11 03:49:29;;;;;;;5.30;3.10;;;;;;;1.79;100.00;101733.44;5054279;28;20179;-48
2022/04/11 03:51:59;;;;;;;3.95;2.80;;;;;;;1.88;100.00;101728.31;5050280;28;20168;-48
2022/04/11 03:54:25;;;;;;;5.28;2.90;;;;;;;1.99;100.00;101731.03;5050692;28;20263;-49
2022/04/11 03:56:51;;;;;;;5.78;2.75;;;;;;;2.00;100.00;101733.72;5051748;28;20195;-49
2022/04/11 03:59:17;;;;;;;4.07;2.40;;;;;;;1.89;100.00;101747.69;5050298;28;20221;-48
2022/04/11 04:01:43;;;;;;;5.35;2.92;;;;;;;1.63;100.00;101748.22;5050548;28;20251;-49
2022/04/11 04:04:08;;;;;;;4.57;2.53;;;;;;;1.81;100.00;101743.16;5033774;28;20589;-48
2022/04/11 04:06:35;;;;;;;4.95;2.85;;;;;;;1.65;100.00;101739.44;5050201;28;20244;-50
2022/04/11 04:09:02;;;;;;;2.70;2.50;;;;;;;1.84;100.00;101734.41;5050413;28;20613;-48
2022/04/11 04:11:35;;;;;;;4.30;2.40;;;;;;;1.85;100.00;101744.97;5050341;28;20250;-48
2022/04/11 04:14:15;;;;;;;6.13;2.83;;;;;;;1.89;100.00;101753.84;5050360;28;20550;-49
2022/04/11 04:16:45;;;;;;;4.10;2.90;;;;;;;1.89;100.00;101755.59;5049867;28;20576;-47
2022/04/11 04:19:13;;;;;;;3.22;2.60;;;;;;;1.88;100.00;101744.16;5050512;28;20267;-50
2022/04/11 04:21:39;;;;;;;5.55;2.85;;;;;;;1.94;100.00;101754.78;5049808;28;20221;-49
2022/04/11 04:24:09;;;;;;;4.20;2.58;;;;;;;2.01;100.00;101754.00;5049612;28;20170;-50
2022/04/11 04:26:37;;;;;;;7.93;2.97;;;;;;;2.05;100.00;101754.91;5049004;28;20218;-50
2022/04/11 04:29:03;;;;;;;5.50;3.08;;;;;;;2.10;100.00;101747.94;5034189;28;20176;-46
2022/04/11 04:31:34;;;;;;;7.35;2.75;;;;;;;2.22;100.00;101758.63;5049927;28;20581;-43
2022/04/11 04:33:59;;;;;;;5.85;2.90;;;;;;;2.17;100.00;101751.53;5050106;28;20179;-49
2022/04/11 04:36:25;;;;;;;7.95;2.85;;;;;;;2.23;100.00;101752.50;5049691;28;20669;-45
2022/04/11 04:38:51;;;;;;;7.55;3.00;;;;;;;2.22;100.00;101763.91;5051558;28;20661;-47
2022/04/11 04:41:17;;;;;;;5.60;2.72;;;;;;;2.28;100.00;101752.53;5050881;28;20167;-45
2022/04/11 04:43:42;;;;;;;4.38;2.78;;;;;;;2.37;100.00;101757.91;5051277;28;20167;-45
2022/04/11 04:46:08;;;;;;;5.68;3.03;;;;;;;2.41;100.00;101770.31;5049528;28;20202;-47
2022/04/11 04:48:41;;;;;;;8.05;3.13;;;;;;;2.42;100.00;101776.47;5050012;28;20175;-45
2022/04/11 04:51:08;;;;;;;3.75;2.70;;;;;;;2.38;100.00;101770.25;5049900;28;20585;-45
2022/04/11 04:53:36;;;;;;;6.82;3.47;;;;;;;2.35;100.00;101764.94;5050500;28;20172;-45
2022/04/11 04:56:01;;;;;;;4.07;3.05;;;;;;;2.31;100.00;101773.72;5050698;28;20177;-44
2022/04/11 04:58:29;;;;;;;7.63;3.00;;;;;;;2.28;100.00;101781.63;5049353;28;20265;-46
2022/04/11 05:00:55;;;;;;;4.60;2.83;;;;;;;2.35;100.00;101770.22;5049761;28;20164;-46
2022/04/11 05:03:23;;;;;;;4.78;2.80;;;;;;;2.30;100.00;101771.94;5049715;28;20195;-46
2022/04/11 05:05:49;;;;;;;9.32;3.00;;;;;;;2.26;100.00;101778.06;5049138;28;20224;-49
2022/04/11 05:08:15;;;;;;;7.05;3.00;;;;;;;2.26;100.00;101778.06;5049440;28;20195;-50
2022/04/11 05:10:41;;;;;;;7.63;3.42;;;;;;;2.47;100.00;101783.59;5049325;28;20241;-48
2022/04/11 05:13:09;;;;;;;8.10;3.75;;;;;;;2.83;100.00;101776.88;5049159;28;20175;-50
2022/04/11 05:15:34;;;;;;;8.35;3.85;;;;;;;3.30;100.00;101778.13;5050662;28;20166;-45
2022/04/11 05:18:09;;;;;;;7.22;4.40;;;;;;;3.71;100.00;101777.50;5048965;28;20273;-47
2022/04/11 05:20:37;;;;;;;7.50;3.45;;;;;;;4.27;100.00;101779.50;5049078;28;20175;-46
2022/04/11 05:23:02;;;;;;;8.73;3.40;;;;;;;4.71;100.00;101772.50;5049133;28;20187;-47
2022/04/11 05:25:33;;;;;;;5.28;3.47;;;;;;;4.92;100.00;101771.66;5049525;28;20167;-46
2022/04/11 05:28:00;;;;;;;6.25;3.72;;;;;;;5.24;100.00;101768.09;5032989;28;20294;-45
2022/04/11 05:30:26;;;;;;;8.27;3.42;;;;;;;5.22;100.00;101767.19;5049689;28;20171;-47
2022/04/11 05:32:53;;;;;;;5.47;3.00;;;;;;;5.40;99.12;101780.47;5049415;28;20279;-46
2022/04/11 05:35:19;;;;;;;5.45;2.72;;;;;;;5.05;98.48;101775.16;5049036;28;20198;-47
2022/04/11 05:37:45;;;;;;;4.82;2.42;;;;;;;4.84;98.05;101776.06;5048461;28;20272;-47
2022/04/11 05:40:12;;;;;;;5.35;2.50;;;;;;;4.56;98.27;101777.78;5049051;28;20190;-49
2022/04/11 05:42:39;;;;;;;5.53;2.75;;;;;;;4.74;98.24;101777.81;5048889;28;20258;-47
2022/04/11 05:45:05;;;;;;;5.03;2.65;;;;;;;4.39;98.01;101778.63;5049083;28;20649;-47
2022/04/11 05:47:31;;;;;;;8.80;3.10;;;;;;;4.36;98.22;101781.28;5048605;28;20489;-46
2022/04/11 05:49:58;;;;;;;6.18;2.75;;;;;;;4.34;99.03;101793.66;5032626;28;20826;-45
2022/04/11 05:52:24;;;;;;;6.90;2.85;;;;;;;4.50;99.67;101787.53;5048700;28;20448;-46
2022/04/11 05:54:50;;;;;;;6.32;2.63;;;;;;;4.51;100.00;101789.28;5050138;28;20171;-46
2022/04/11 05:57:15;;;;;;;3.40;2.63;;;;;;;4.43;100.00;101783.06;5048800;28;20179;-46
2022/04/11 05:59:41;;;;;;;7.00;2.80;;;;;;;4.39;99.84;101794.53;5048399;28;20262;-50
2022/04/11 06:02:09;;;;;;;4.90;2.60;;;;;;;4.38;100.00;101797.22;5048780;28;20255;-46
2022/04/11 06:04:37;;;;;;;7.15;2.50;;;;;;;4.50;100.00;101800.81;5049993;28;20705;-45
2022/04/11 06:07:04;;;;;;;9.73;2.92;;;;;;;4.63;100.00;101798.16;5048299;28;20290;-49
2022/04/11 06:09:31;;;;;;;8.18;3.00;;;;;;;4.43;100.00;101796.34;5048523;28;20175;-46
2022/04/11 06:12:00;;;;;;;6.15;2.83;;;;;;;4.38;100.00;101799.88;5048386;28;20583;-47
2022/04/11 06:14:26;;;;;;;9.10;3.03;;;;;;;4.49;100.00;101808.75;5048488;28;20648;-46
2022/04/11 06:16:52;;;;;;;5.22;3.08;;;;;;;4.66;100.00;101814.97;5048497;28;20183;-46
2022/04/11 06:19:18;;;;;;;6.75;2.70;;;;;;;4.29;100.00;101812.22;5048643;28;20302;-46
2022/04/11 06:21:44;;;;;;;5.10;2.80;;;;;;;4.27;100.00;101821.94;5048616;28;20198;-45
2022/04/11 06:24:09;;;;;;;6.63;2.70;;;;;;;4.44;100.00;101819.34;5049160;28;20178;-47
2022/04/11 06:26:35;;;;;;;9.77;3.33;;;;;;;4.36;100.00;101826.41;5047668;28;20584;-45
2022/04/11 06:29:01;;;;;;;6.78;3.33;;;;;;;4.59;100.00;101822.91;5047946;28;20171;-46
2022/04/11 06:31:27;;;;;;;5.90;2.75;;;;;;;5.08;100.00;101815.03;5048104;28;20278;-46
2022/04/11 06:33:59;;;;;;;7.93;3.10;;;;;;;5.33;100.00;101824.75;5048265;28;20596;-47
2022/04/11 06:36:28;;;;;;;7.20;2.78;;;;;;;5.65;99.58;101817.63;5047402;28;20183;-45
2022/04/11 06:38:54;;;;;;;6.80;2.70;;;;;;;5.76;98.67;101819.38;5048055;28;20244;-46
2022/04/11 06:41:20;;;;;;;7.63;2.72;;;;;;;5.67;97.29;101829.16;5047659;28;20179;-46
2022/04/11 06:43:46;;;;;;;7.30;2.35;;;;;;;5.36;97.10;101832.72;5048805;28;20602;-47
2022/04/11 06:46:24;;;;;;;3.65;2.00;;;;;;;5.24;96.77;101830.06;5047472;28;20246;-47
2022/04/11 06:48:49;;;;;;;7.63;2.42;;;;;;;5.34;96.26;101831.84;5056140;28;20259;-46
2022/04/11 06:51:15;;;;;;;3.38;1.88;;;;;;;5.40;96.18;101838.03;5072415;28;20185;-48
2022/04/11 06:53:40;;;;;;;4.95;2.40;;;;;;;5.53;97.05;101847.75;5071822;28;20175;-48
2022/04/11 06:56:06;;;;;;;7.88;2.60;;;;;;;5.82;95.67;101836.22;5073215;28;20166;-46
2022/04/11 06:58:31;;;;;;;8.07;2.65;;;;;;;5.69;94.95;101838.91;5073335;28;20570;-47
2022/04/11 07:00:56;;;;;;;5.75;2.00;;;;;;;5.83;94.59;101852.16;5073428;28;20643;-46
2022/04/11 07:03:22;;;;;;;2.42;1.90;;;;;;;5.95;94.10;101848.63;5073089;28;20163;-44
2022/04/11 07:05:47;;;;;;;5.32;2.38;;;;;;;5.92;93.01;101846.81;5071808;28;20257;-44
2022/04/11 07:08:13;;;;;;;3.72;1.70;;;;;;;6.27;92.80;101835.19;5073144;28;20205;-48
2022/04/11 07:10:40;;;;;;;8.18;2.33;;;;;;;6.11;90.98;101850.34;5054993;28;20167;-49
2022/04/11 07:13:06;;;;;;;6.30;2.00;;;;;;;6.41;89.84;101840.47;5073033;28;20550;-43
2022/04/11 07:15:32;;;;;;;6.82;2.17;;;;;;;6.24;89.80;101843.19;5073538;28;20166;-46
2022/04/11 07:17:57;;;;;;;6.40;1.85;;;;;;;6.08;88.92;101845.03;5072586;28;20187;-49
2022/04/11 07:20:23;;;;;;;4.68;1.80;;;;;;;5.98;89.63;101859.25;5071562;28;20531;-48
2022/04/11 07:22:48;;;;;;;3.20;1.50;;;;;;;6.54;89.10;101851.94;5072564;28;20273;-48
2022/04/11 07:25:14;;;;;;;8.02;1.80;;;;;;;7.12;87.30;101840.03;5073418;28;20174;-48
2022/04/11 07:27:39;;;;;;;4.78;1.95;;;;;;;7.82;86.01;101834.03;5060022;28;20753;-50
2022/04/11 07:30:06;;;;;;;3.15;1.85;;;;;;;8.06;83.74;101829.31;5050403;28;20836;-50
2022/04/11 07:32:31;;;;;;;6.75;1.95;;;;;;;8.05;82.02;101824.91;5050785;28;20263;-50
2022/04/11 07:34:58;;;;;;;5.38;1.60;;;;;;;7.78;82.77;101837.66;5051216;28;20250;-51
2022/04/11 07:37:25;;;;;;;2.58;1.70;;;;;;;7.99;81.66;101836.53;5052449;28;20241;-50
2022/04/11 07:39:51;;;;;;;3.97;1.45;;;;;;;7.45;80.22;101838.84;5052737;28;20532;-48
2022/04/11 07:42:17;;;;;;;4.45;1.85;;;;;;;8.09;80.87;101837.31;5052193;28;20178;-50
2022/04/11 07:44:43;;;;;;;7.70;1.70;;;;;;;8.03;78.24;101838.25;5051177;28;20184;-51
2022/04/11 07:47:09;;;;;;;4.53;1.67;;;;;;;8.20;77.93;101843.41;5052526;28;20619;-47
2022/04/11 07:49:34;;;;;;;4.40;1.55;;;;;;;8.66;77.06;101837.50;5051713;28;20176;-47
2022/04/11 07:51:59;;;;;;;5.03;1.50;;;;;;;8.87;75.06;101835.41;5051093;28;20191;-49
2022/04/11 07:54:25;;;;;;;3.90;1.20;;;;;;;8.41;72.92;101836.06;5051724;28;20168;-49
2022/04/11 07:56:50;;;;;;;2.28;1.25;;;;;;;8.23;72.91;101829.13;5050842;28;20293;-51
2022/04/11 07:59:16;;;;;;;3.00;1.10;;;;;;;7.91;73.96;101837.50;5051240;28;20811;-50
2022/04/11 08:01:41;;;;;;;4.72;1.50;;;;;;;7.42;75.34;101842.44;5051010;28;20163;-49
2022/04/11 08:04:06;;;;;;;3.80;1.30;;;;;;;7.70;74.58;101836.84;5051812;28;20638;-51
2022/04/11 08:06:32;;;;;;;1.13;1.00;;;;;;;7.44;74.69;101829.09;5051775;28;20219;-50
2022/04/11 08:08:57;;;;;;;3.85;1.20;;;;;;;7.46;74.84;101837.97;5051466;28;20172;-47
2022/04/11 08:11:23;;;;;;;2.28;1.10;;;;;;;7.31;73.48;101838.09;5051863;28;20178;-50
2022/04/11 08:13:48;;;;;;;4.47;1.45;;;;;;;7.37;74.02;101836.28;5051108;28;20204;-49
2022/04/11 08:16:14;;;;;;;7.53;1.50;;;;;;;7.04;73.52;101836.53;5051701;28;20532;-51
2022/04/11 08:18:39;;;;;;;2.80;1.33;;;;;;;7.17;75.35;101835.53;5051717;28;20174;-49
2022/04/11 08:21:05;;;;;;;4.90;1.10;;;;;;;7.45;75.03;101838.84;5051816;28;20218;-52
2022/04/11 08:23:31;;;;;;;5.60;1.30;;;;;;;7.07;75.43;101832.06;5050145;28;20172;-47
2022/04/11 08:25:56;;;;;;;7.32;1.67;;;;;;;7.00;74.09;101836.56;5051666;28;20167;-50
2022/04/11 08:28:22;;;;;;;2.90;1.10;;;;;;;7.95;73.10;101834.78;5051803;28;20618;-48
2022/04/11 08:30:49;;;;;;;5.57;1.02;;;;;;;7.62;71.79;101833.38;5051393;28;20564;-48
2022/04/11 08:33:14;;;;;;;3.90;1.20;;;;;;;8.08;72.00;101835.53;5051323;28;20235;-49
2022/04/11 08:35:40;;;;;;;7.95;1.50;;;;;;;9.25;73.29;101817.91;5051044;28;20159;-47
2022/04/11 08:38:05;;;;;;;4.20;1.08;;;;;;;9.09;69.00;101822.59;5051386;28;20258;-50
2022/04/11 08:40:31;;;;;;;4.43;1.27;;;;;;;8.45;69.32;101822.63;5051316;28;20168;-48
2022/04/11 08:42:59;;;;;;;3.63;1.10;;;;;;;8.17;68.75;101827.41;5049465;28;20225;-50
2022/04/11 08:45:27;;;;;;;3.53;1.27;;;;;;;7.60;69.91;101828.03;5051106;28;20205;-49
2022/04/11 08:47:53;;;;;;;2.67;1.00;;;;;;;7.68;69.43;101841.31;5050625;28;20196;-49
2022/04/11 08:50:19;;;;;;;2.45;0.93;;;;;;;8.40;66.69;101834.25;5051254;28;20201;-49
2022/04/11 08:52:48;;;;;;;3.88;1.00;;;;;;;8.90;65.60;101832.72;5051042;28;20262;-48
2022/04/11 08:55:14;;;;;;;3.00;1.20;;;;;;;9.02;63.91;101821.81;5050998;28;20306;-48
2022/04/11 08:57:40;;;;;;;5.07;1.40;;;;;;;9.39;64.25;101826.53;5050999;28;20232;-49
2022/04/11 09:00:15;;;;;;;4.63;0.88;;;;;;;8.88;64.48;101826.50;5050449;28;20179;-47
2022/04/11 09:02:42;;;;;;;2.60;0.95;;;;;;;9.13;64.13;101829.66;5050835;28;20167;-48
2022/04/11 09:05:09;;;;;;;4.18;1.20;;;;;;;8.35;63.54;101839.66;5050895;28;20227;-51
2022/04/11 09:07:55;;;;;;;2.08;0.90;;;;;;;7.83;65.05;101841.16;5050545;28;20202;-50
2022/04/11 09:10:25;;;;;;;3.50;0.93;;;;;;;8.25;65.43;101843.34;5050464;28;20589;-51
2022/04/11 09:12:56;;;;;;;3.95;0.98;;;;;;;8.02;63.90;101838.28;5049139;28;20166;-50
2022/04/11 09:15:25;;;;;;;2.35;0.82;;;;;;;8.31;64.37;101840.59;5050665;28;20174;-49
2022/04/11 09:17:52;;;;;;;1.38;0.70;;;;;;;7.93;64.74;101841.91;5049933;28;20219;-49
2022/04/11 09:20:26;;;;;;;1.15;0.70;;;;;;;7.84;65.53;101845.56;5050332;28;20171;-51
2022/04/11 09:22:52;;;;;;;2.78;0.95;;;;;;;7.42;66.20;101844.22;5047545;28;20261;-49
2022/04/11 09:25:19;;;;;;;3.35;1.08;;;;;;;7.37;67.76;101846.06;5050330;28;20649;-49
2022/04/11 09:27:46;;;;;;;3.92;1.20;;;;;;;7.30;67.74;101846.97;5049978;28;20211;-49
2022/04/11 09:30:26;;;;;;;2.00;1.00;;;;;;;7.63;67.92;101838.69;5049575;28;20199;-47
2022/04/11 09:32:58;;;;;;;3.80;1.20;;;;;;;8.02;66.91;101838.28;5050277;28;20274;-49
2022/04/11 09:35:32;;;;;;;2.72;1.00;;;;;;;7.78;66.12;101839.41;5050339;28;20178;-50
2022/04/11 09:38:16;;;;;;;2.83;1.25;;;;;;;7.70;66.27;101836.84;5050001;28;20227;-50
2022/04/11 09:40:49;;;;;;;6.03;1.20;;;;;;;7.97;64.12;101832.09;5048872;28;20175;-49
2022/04/11 09:43:17;;;;;;;2.10;0.98;;;;;;;8.21;64.36;101829.13;5049902;28;20189;-49
2022/04/11 09:45:48;;;;;;;3.10;1.10;;;;;;;8.75;63.32;101823.13;5050138;28;20183;-47
2022/04/11 09:48:19;;;;;;;2.78;1.15;;;;;;;8.97;61.91;101823.69;5050667;28;20303;-48
2022/04/11 09:50:45;;;;;;;3.67;1.10;;;;;;;9.58;62.59;101821.75;5070106;28;20186;-47
2022/04/11 09:53:32;;;;;;;2.33;0.80;;;;;;;9.84;61.12;101820.41;5069677;28;20231;-50
2022/04/11 09:56:01;;;;;;;4.40;0.88;;;;;;;9.41;60.31;101826.53;5069899;28;20269;-47
2022/04/11 09:58:27;;;;;;;1.55;0.85;;;;;;;8.50;60.79;101837.72;5069422;28;20228;-49
2022/04/11 10:00:53;;;;;;;2.83;0.88;;;;;;;8.57;61.53;101837.63;5069632;28;20199;-50
2022/04/11 10:03:23;;;;;;;2.80;1.15;;;;;;;8.34;59.72;101839.69;5069619;28;20269;-46
2022/04/11 10:05:51;;;;;;;4.10;0.93;;;;;;;8.33;61.47;101845.91;5069593;28;20182;-48
2022/04/11 10:08:18;;;;;;;3.40;0.80;;;;;;;8.11;60.97;101851.53;5069469;28;20204;-49
2022/04/11 10:10:43;;;;;;;4.22;1.05;;;;;;;8.28;61.59;101837.09;5069748;28;20207;-48
2022/04/11 10:13:14;;;;;;;2.22;0.77;;;;;;;8.43;62.89;101848.47;5069011;28;20252;-49
2022/04/11 10:15:41;;;;;;;3.95;1.10;;;;;;;8.67;62.88;101851.72;5069789;28;20174;-48
2022/04/11 10:18:10;;;;;;;2.67;1.00;;;;;;;8.80;62.18;101847.09;5069501;28;20240;-49
2022/04/11 10:20:38;;;;;;;1.33;0.95;;;;;;;8.80;61.26;101844.44;5064589;28;20262;-45
2022/04/11 10:23:13;;;;;;;3.05;1.17;;;;;;;8.80;60.16;101834.63;5051010;28;20182;-45
2022/04/11 10:25:49;;;;;;;2.17;0.82;;;;;;;9.00;60.66;101836.97;5069663;28;20174;-47
2022/04/11 10:28:17;;;;;;;3.25;0.82;;;;;;;9.37;59.50;101828.34;5069461;28;20210;-48
2022/04/11 10:30:44;;;;;;;3.08;1.02;;;;;;;9.99;58.23;101828.13;5069730;28;20174;-47
2022/04/11 10:33:10;;;;;;;3.03;0.82;;;;;;;10.66;57.10;101827.63;5069431;28;20219;-48
2022/04/11 10:35:45;;;;;;;3.35;0.90;;;;;;;10.55;56.45;101827.00;5069748;28;20183;-47
2022/04/11 10:38:12;;;;;;;4.03;0.93;;;;;;;10.90;54.55;101812.78;5069495;28;20221;-47
2022/04/11 10:40:46;;;;;;;3.85;0.90;;;;;;;10.89;56.22;101811.91;5069826;28;20246;-48
2022/04/11 10:43:14;;;;;;;3.13;1.08;;;;;;;10.74;54.18;101820.31;5069256;28;20858;-46
2022/04/11 10:45:58;;;;;;;1.92;0.80;;;;;;;11.13;53.97;101814.91;5069812;28;20224;-46
2022/04/11 10:48:54;;;;;;;4.18;0.90;;;;;;;10.86;54.38;101816.44;5069341;28;20620;-46
2022/04/11 10:51:20;;;;;;;3.75;1.23;;;;;;;10.59;55.01;101808.13;5069789;28;20213;-48
2022/04/11 10:54:14;;;;;;;2.33;0.80;;;;;;;10.26;56.39;101813.28;5069334;28;20178;-48
2022/04/11 10:56:51;;;;;;;2.13;0.80;;;;;;;9.99;56.85;101819.19;5068885;28;20198;-47
2022/04/11 10:59:25;;;;;;;1.83;1.00;;;;;;;9.59;56.77;101817.28;5069684;28;20179;-46
2022/04/11 11:01:54;;;;;;;2.40;0.90;;;;;;;9.78;57.13;101826.75;5069394;28;20185;-46
2022/04/11 11:04:21;;;;;;;4.55;1.13;;;;;;;9.35;56.97;101814.13;5069139;28;20257;-47
2022/04/11 11:06:47;;;;;;;4.28;0.70;;;;;;;9.53;55.59;101820.06;5068903;28;20261;-47
2022/04/11 11:09:19;;;;;;;2.05;0.98;;;;;;;9.33;55.33;101809.72;5069108;28;20225;-48
2022/04/11 11:11:48;;;;;;;6.82;1.20;;;;;;;9.04;55.89;101808.44;5069312;28;20210;-47
2022/04/11 11:14:40;;;;;;;1.15;0.68;;;;;;;9.10;56.45;101813.69;5068781;28;20174;-43
2022/04/11 11:17:05;;;;;;;3.85;0.90;;;;;;;8.62;56.58;101801.03;5069384;28;20195;-44
2022/04/11 11:19:31;;;;;;;2.88;1.05;;;;;;;9.16;56.60;101807.31;5068966;28;20826;-43
2022/04/11 11:21:58;;;;;;;3.38;0.75;;;;;;;9.76;53.94;101796.44;5068999;28;20637;-42
2022/04/11 11:24:23;;;;;;;1.02;0.80;;;;;;;9.62;53.38;101799.41;5069310;28;20171;-44
2022/04/11 11:26:53;;;;;;;1.65;0.70;;;;;;;9.38;55.29;101803.41;5068843;28;20867;-44
2022/04/11 11:29:43;;;;;;;4.72;1.10;;;;;;;9.65;56.02;101811.81;5069293;28;20181;-45
2022/04/11 11:32:12;;;;;;;1.10;0.70;;;;;;;9.22;55.94;101794.72;5067561;28;20178;-44